createdAt,value
2019-05-12T00:00:18.376Z,94.10
2019-05-12T00:02:51.135Z,94.24
2019-05-12T00:05:23.862Z,94.25
2019-05-12T00:07:58.721Z,94.27
2019-05-12T00:10:31.003Z,94.26
2019-05-12T00:13:03.697Z,94.26
2019-05-12T00:15:38.408Z,94.09
2019-05-12T00:18:10.780Z,93.98
2019-05-12T00:20:43.447Z,93.97
2019-05-12T00:23:26.645Z,93.95
2019-05-12T00:25:50.534Z,93.95
2019-05-12T00:28:23.264Z,93.99
2019-05-12T00:30:57.973Z,93.93
2019-05-12T00:33:30.423Z,93.87
2019-05-12T00:36:03.091Z,93.85
2019-05-12T00:38:38.042Z,93.85
2019-05-12T00:41:10.101Z,93.92
2019-05-12T00:43:42.760Z,93.84
2019-05-12T00:46:15.516Z,93.89
2019-05-12T00:48:48.359Z,93.83
2019-05-12T00:51:21.091Z,93.81
2019-05-12T00:53:53.768Z,93.79
2019-05-12T00:56:28.418Z,93.85
2019-05-12T00:59:01.246Z,93.91
2019-05-12T01:01:34.195Z,93.87
2019-05-12T01:04:08.833Z,93.40
2019-05-12T01:06:41.208Z,93.10
2019-05-12T01:09:14.443Z,93.09
2019-05-12T01:11:48.096Z,93.14
2019-05-12T01:14:20.938Z,93.24
2019-05-12T01:16:53.869Z,93.20
2019-05-12T01:19:28.643Z,93.13
2019-05-12T01:22:00.959Z,93.11
2019-05-12T01:24:33.614Z,92.81
2019-05-12T01:27:08.493Z,92.62
2019-05-12T01:29:40.756Z,92.64
2019-05-12T01:32:24.111Z,92.79
2019-05-12T01:34:57.766Z,92.04
2019-05-12T01:37:30.478Z,92.35
2019-05-12T01:40:03.262Z,91.98
2019-05-12T01:42:38.003Z,92.10
2019-05-12T01:45:11.004Z,92.40
2019-05-12T01:47:43.613Z,92.26
2019-05-12T01:50:17.809Z,90.84
2019-05-12T01:52:50.586Z,90.81
2019-05-12T01:55:23.276Z,88.11
2019-05-12T01:57:57.739Z,88.52
2019-05-12T02:00:30.467Z,90.21
2019-05-12T02:03:03.123Z,90.69
2019-05-12T02:05:38.117Z,89.23
2019-05-12T02:08:15.191Z,88.99
2019-05-12T02:10:48.159Z,89.19
2019-05-12T02:13:20.775Z,87.50
2019-05-12T02:15:53.420Z,88.15
2019-05-12T02:18:28.078Z,88.78
2019-05-12T02:21:00.385Z,88.65
2019-05-12T02:23:33.081Z,88.58
2019-05-12T02:26:08.096Z,88.97
2019-05-12T02:28:40.271Z,89.14
2019-05-12T02:31:12.902Z,89.91
2019-05-12T02:33:45.606Z,89.71
2019-05-12T02:36:18.222Z,89.48
2019-05-12T02:38:51.508Z,88.80
2019-05-12T02:41:25.915Z,89.25
2019-05-12T02:43:58.664Z,90.20
2019-05-12T02:46:34.537Z,88.84
2019-05-12T02:49:05.795Z,88.31
2019-05-12T02:51:38.626Z,89.00
2019-05-12T02:54:14.252Z,87.01
2019-05-12T02:56:48.225Z,87.37
2019-05-12T02:59:25.254Z,87.81
2019-05-12T03:02:00.877Z,88.59
2019-05-12T03:04:36.084Z,88.92
2019-05-12T03:07:10.519Z,88.88
2019-05-12T03:09:44.730Z,88.62
2019-05-12T03:12:17.433Z,88.15
2019-05-12T03:14:50.133Z,85.97
2019-05-12T03:17:25.146Z,86.74
2019-05-12T03:19:57.123Z,86.23
2019-05-12T03:22:29.806Z,87.41
2019-05-12T03:25:14.739Z,87.66
2019-05-12T03:27:36.849Z,89.14
2019-05-12T03:30:12.195Z,90.06
2019-05-12T03:32:47.292Z,90.91
2019-05-12T03:35:18.808Z,90.48
2019-05-12T03:37:54.653Z,90.55
2019-05-12T03:40:25.862Z,90.57
2019-05-12T03:42:58.523Z,89.63
2019-05-12T03:45:31.258Z,89.13
2019-05-12T03:48:04.399Z,90.01
2019-05-12T03:50:37.240Z,90.48
2019-05-12T03:53:11.209Z,90.62
2019-05-12T03:55:46.817Z,90.00
2019-05-12T03:58:18.481Z,90.01
2019-05-12T04:00:51.219Z,90.26
2019-05-12T04:03:24.667Z,88.25
2019-05-12T04:05:57.692Z,87.77
2019-05-12T04:08:30.294Z,88.53
2019-05-12T04:11:05.322Z,86.57
2019-05-12T04:13:37.301Z,86.53
2019-05-12T04:16:17.544Z,86.69
2019-05-12T04:18:50.458Z,86.66
2019-05-12T04:21:24.261Z,87.21
2019-05-12T04:23:57.419Z,86.73
2019-05-12T04:26:31.205Z,85.74
2019-05-12T04:29:05.072Z,86.06
2019-05-12T04:31:38.622Z,86.60
2019-05-12T04:34:14.574Z,86.69
2019-05-12T04:36:45.702Z,86.33
2019-05-12T04:39:18.454Z,86.59
2019-05-12T04:41:51.068Z,86.09
2019-05-12T04:44:25.101Z,86.81
2019-05-12T04:46:58.049Z,87.92
2019-05-12T04:49:30.865Z,88.13
2019-05-12T04:52:05.235Z,88.95
2019-05-12T04:54:37.758Z,89.74
2019-05-12T04:57:10.455Z,89.86
2019-05-12T04:59:45.050Z,89.56
2019-05-12T05:02:18.007Z,89.38
2019-05-12T05:04:50.698Z,87.97
2019-05-12T05:07:24.380Z,89.25
2019-05-12T05:09:57.553Z,89.62
2019-05-12T05:12:31.311Z,89.39
2019-05-12T05:15:05.407Z,89.28
2019-05-12T05:17:38.309Z,88.79
2019-05-12T05:20:13.371Z,82.42
2019-05-12T05:22:45.508Z,82.45
2019-05-12T05:25:18.542Z,85.00
2019-05-12T05:27:53.594Z,85.00
2019-05-12T05:30:26.984Z,84.61
2019-05-12T05:32:59.695Z,85.92
2019-05-12T05:35:35.179Z,87.02
2019-05-12T05:38:10.832Z,86.99
2019-05-12T05:40:45.154Z,87.52
2019-05-12T05:43:18.775Z,86.52
2019-05-12T05:45:56.081Z,85.43
2019-05-12T05:48:25.900Z,85.40
2019-05-12T05:50:59.918Z,85.85
2019-05-12T05:53:33.607Z,84.81
2019-05-12T05:56:06.452Z,84.18
2019-05-12T05:58:40.299Z,84.50
2019-05-12T06:01:13.921Z,85.34
2019-05-12T06:03:46.756Z,84.04
2019-05-12T06:06:19.583Z,81.29
2019-05-12T06:08:59.466Z,79.04
2019-05-12T06:11:34.362Z,79.66
2019-05-12T06:14:11.440Z,80.21
2019-05-12T06:16:43.217Z,76.44
2019-05-12T06:19:15.469Z,79.78
2019-05-12T06:21:48.217Z,80.05
2019-05-12T06:24:20.918Z,79.43
2019-05-12T06:27:00.225Z,78.90
2019-05-12T06:29:27.950Z,73.86
2019-05-12T06:32:06.297Z,74.32
2019-05-12T06:34:35.110Z,75.90
2019-05-12T06:37:12.051Z,74.81
2019-05-12T06:39:43.559Z,76.94
2019-05-12T06:42:17.132Z,76.38
2019-05-12T06:44:55.083Z,74.62
2019-05-12T06:47:24.356Z,76.96
2019-05-12T06:49:58.226Z,75.13
2019-05-12T06:52:30.915Z,75.44
2019-05-12T06:55:04.130Z,75.82
2019-05-12T06:57:40.131Z,72.56
2019-05-12T07:00:11.511Z,72.37
2019-05-12T07:02:52.111Z,78.49
2019-05-12T07:05:18.519Z,75.39
2019-05-12T07:07:53.301Z,72.93
2019-05-12T07:10:36.752Z,70.96
2019-05-12T07:13:04.529Z,69.58
2019-05-12T07:15:40.175Z,65.31
2019-05-12T07:18:14.011Z,64.60
2019-05-12T07:20:47.057Z,66.39
2019-05-12T07:23:25.106Z,65.04
2019-05-12T07:25:55.027Z,66.01
2019-05-12T07:28:30.311Z,66.82
2019-05-12T07:31:03.900Z,68.93
2019-05-12T07:33:41.580Z,65.56
2019-05-12T07:36:13.843Z,66.04
2019-05-12T07:38:49.227Z,70.42
2019-05-12T07:41:24.007Z,68.56
2019-05-12T07:44:01.014Z,73.55
2019-05-12T07:46:39.677Z,68.86
2019-05-12T07:49:11.384Z,64.84
2019-05-12T07:51:44.671Z,60.61
2019-05-12T07:54:17.617Z,64.82
2019-05-12T07:56:50.449Z,62.90
2019-05-12T07:59:26.636Z,61.91
2019-05-12T08:01:57.823Z,65.63
2019-05-12T08:04:31.598Z,64.14
2019-05-12T08:07:05.167Z,65.59
2019-05-12T08:09:37.968Z,65.39
2019-05-12T08:12:19.128Z,66.37
2019-05-12T08:14:45.160Z,66.54
2019-05-12T08:17:19.586Z,71.56
2019-05-12T08:19:53.675Z,70.91
2019-05-12T08:22:29.351Z,70.37
2019-05-12T08:25:01.185Z,70.20
2019-05-12T08:27:34.136Z,73.02
2019-05-12T08:30:08.029Z,71.73
2019-05-12T08:32:40.855Z,71.38
2019-05-12T08:35:14.120Z,69.66
2019-05-12T08:37:46.951Z,67.58
2019-05-12T08:40:19.632Z,68.52
2019-05-12T08:42:53.989Z,67.46
2019-05-12T08:45:33.742Z,68.78
2019-05-12T08:48:03.681Z,68.57
2019-05-12T08:50:36.469Z,65.57
2019-05-12T08:53:14.004Z,64.93
2019-05-12T08:55:43.835Z,63.01
2019-05-12T08:58:30.101Z,60.05
2019-05-12T09:00:50.742Z,55.64
2019-05-12T09:03:26.963Z,54.70
2019-05-12T09:05:58.366Z,52.16
2019-05-12T09:08:37.909Z,55.53
2019-05-12T09:11:06.837Z,57.62
2019-05-12T09:13:39.548Z,61.15
2019-05-12T09:16:13.843Z,60.16
2019-05-12T09:18:46.757Z,60.73
2019-05-12T09:21:23.638Z,63.49
2019-05-12T09:23:56.010Z,63.57
2019-05-12T09:26:28.785Z,58.09
2019-05-12T09:29:03.425Z,55.16
2019-05-12T09:31:36.340Z,52.63
2019-05-12T09:34:16.194Z,52.76
2019-05-12T09:36:44.230Z,53.57
2019-05-12T09:39:17.079Z,52.13
2019-05-12T09:41:52.658Z,48.49
2019-05-12T09:44:26.410Z,50.93
2019-05-12T09:46:58.735Z,53.63
2019-05-12T09:49:36.741Z,50.23
2019-05-12T09:52:06.195Z,57.60
2019-05-12T09:54:40.898Z,60.06
2019-05-12T09:57:13.750Z,55.73
2019-05-12T09:59:57.330Z,52.43
2019-05-12T10:02:21.168Z,48.91
2019-05-12T10:04:56.475Z,49.09
2019-05-12T10:07:29.409Z,53.45
2019-05-12T10:10:03.672Z,52.21
2019-05-12T10:12:45.162Z,50.94
2019-05-12T10:15:13.550Z,50.84
2019-05-12T10:17:46.432Z,46.10
2019-05-12T10:20:21.538Z,55.28
2019-05-12T10:22:54.289Z,44.82
2019-05-12T10:25:28.396Z,47.60
2019-05-12T10:28:11.488Z,48.04
2019-05-12T10:30:37.926Z,45.28
2019-05-12T10:33:10.814Z,48.41
2019-05-12T10:35:44.005Z,44.06
2019-05-12T10:38:16.806Z,38.12
2019-05-12T10:40:49.583Z,41.33
2019-05-12T10:43:27.423Z,38.80
2019-05-12T10:46:00.227Z,40.26
2019-05-12T10:48:33.892Z,41.29
2019-05-12T10:51:07.670Z,38.58
2019-05-12T10:53:40.461Z,41.26
2019-05-12T10:56:13.257Z,38.23
2019-05-12T10:58:46.097Z,42.20
2019-05-12T11:01:18.903Z,42.07
2019-05-12T11:03:52.579Z,47.26
2019-05-12T11:06:25.281Z,41.81
2019-05-12T11:08:59.040Z,42.60
2019-05-12T11:11:32.849Z,39.63
2019-05-12T11:14:06.379Z,38.48
2019-05-12T11:16:41.787Z,40.53
2019-05-12T11:19:13.860Z,43.27
2019-05-12T11:21:46.720Z,49.47
2019-05-12T11:24:20.176Z,43.65
2019-05-12T11:26:53.633Z,41.79
2019-05-12T11:29:26.625Z,44.68
2019-05-12T11:31:59.369Z,39.32
2019-05-12T11:34:33.571Z,42.16
2019-05-12T11:37:06.333Z,38.03
2019-05-12T11:39:44.501Z,39.69
2019-05-12T11:42:13.736Z,43.39
2019-05-12T11:44:46.576Z,37.56
2019-05-12T11:47:24.125Z,40.67
2019-05-12T11:49:58.631Z,39.50
2019-05-12T11:52:28.392Z,43.75
2019-05-12T11:55:01.853Z,38.69
2019-05-12T11:57:34.982Z,44.47
2019-05-12T12:00:10.213Z,43.79
2019-05-12T12:02:43.743Z,42.53
2019-05-12T12:05:16.643Z,43.30
2019-05-12T12:07:52.745Z,37.38
2019-05-12T12:10:23.866Z,43.20
2019-05-12T12:12:56.758Z,41.99
2019-05-12T12:15:30.391Z,43.38
2019-05-12T12:18:12.712Z,41.87
2019-05-12T12:20:37.775Z,40.87
2019-05-12T12:23:11.413Z,44.72
2019-05-12T12:25:48.410Z,42.41
2019-05-12T12:28:19.352Z,40.40
2019-05-12T12:30:56.879Z,45.28
2019-05-12T12:33:31.066Z,37.75
2019-05-12T12:36:01.174Z,44.13
2019-05-12T12:38:33.901Z,42.22
2019-05-12T12:41:06.680Z,39.30
2019-05-12T12:43:40.071Z,47.13
2019-05-12T12:46:26.375Z,46.39
2019-05-12T12:49:00.298Z,47.48
2019-05-12T12:51:34.235Z,46.99
2019-05-12T12:54:07.217Z,45.71
2019-05-12T12:56:40.000Z,46.67
2019-05-12T12:59:14.660Z,44.74
2019-05-12T13:01:47.340Z,40.83
2019-05-12T13:04:20.127Z,39.08
2019-05-12T13:06:54.373Z,41.19
2019-05-12T13:09:27.106Z,39.90
2019-05-12T13:11:59.893Z,40.95
2019-05-12T13:14:34.624Z,37.49
2019-05-12T13:17:07.295Z,42.30
2019-05-12T13:19:43.702Z,43.95
2019-05-12T13:22:18.943Z,46.17
2019-05-12T13:24:53.053Z,43.08
2019-05-12T13:27:29.057Z,46.21
2019-05-12T13:30:01.960Z,49.25
2019-05-12T13:32:37.910Z,45.62
2019-05-12T13:35:15.080Z,54.27
2019-05-12T13:37:50.266Z,47.28
2019-05-12T13:40:23.255Z,51.98
2019-05-12T13:42:55.371Z,51.44
2019-05-12T13:45:28.139Z,47.91
2019-05-12T13:48:00.856Z,53.37
2019-05-12T13:50:34.766Z,54.10
2019-05-12T13:53:10.022Z,53.70
2019-05-12T13:55:47.415Z,54.16
2019-05-12T13:58:16.695Z,58.31
2019-05-12T14:01:09.169Z,60.35
2019-05-12T14:03:23.946Z,58.65
2019-05-12T14:05:56.723Z,62.39
2019-05-12T14:08:29.374Z,65.63
2019-05-12T14:11:02.086Z,66.90
2019-05-12T14:13:34.707Z,68.48
2019-05-12T14:16:07.602Z,68.23
2019-05-12T14:18:44.023Z,67.85
2019-05-12T14:21:16.040Z,67.97
2019-05-12T14:23:48.729Z,67.85
2019-05-12T14:26:21.471Z,71.53
2019-05-12T14:28:54.322Z,71.59
2019-05-12T14:31:30.644Z,66.73
2019-05-12T14:34:00.784Z,70.70
2019-05-12T14:36:33.726Z,66.63
2019-05-12T14:39:10.114Z,69.89
2019-05-12T14:41:44.341Z,70.41
2019-05-12T14:44:17.078Z,72.79
2019-05-12T14:46:50.837Z,68.21
2019-05-12T14:49:28.452Z,69.57
2019-05-12T14:51:58.021Z,71.58
2019-05-12T14:54:30.774Z,69.00
2019-05-12T14:57:03.668Z,73.26
2019-05-12T14:59:40.939Z,67.75
2019-05-12T15:02:11.043Z,65.37
2019-05-12T15:04:43.910Z,64.59
2019-05-12T15:07:16.625Z,63.71
2019-05-12T15:09:55.767Z,68.47
2019-05-12T15:12:24.340Z,67.13
2019-05-12T15:14:57.102Z,64.12
2019-05-12T15:17:29.973Z,64.17
2019-05-12T15:20:06.637Z,57.76
2019-05-12T15:22:45.252Z,55.54
2019-05-12T15:25:14.576Z,55.53
2019-05-12T15:27:48.461Z,49.25
2019-05-12T15:30:24.438Z,47.99
2019-05-12T15:32:55.880Z,49.55
2019-05-12T15:35:28.606Z,49.62
2019-05-12T15:38:03.809Z,49.91
2019-05-12T15:40:36.095Z,47.90
2019-05-12T15:43:09.395Z,49.20
2019-05-12T15:45:43.667Z,48.40
2019-05-12T15:48:18.497Z,46.40
2019-05-12T15:50:51.217Z,49.91
2019-05-12T15:53:26.896Z,53.15
2019-05-12T15:55:58.640Z,51.92
2019-05-12T15:58:33.509Z,52.85
2019-05-12T16:01:05.950Z,54.98
2019-05-12T16:03:38.754Z,54.78
2019-05-12T16:06:15.034Z,57.72
2019-05-12T16:08:47.831Z,58.89
2019-05-12T16:11:20.556Z,59.84
2019-05-12T16:13:59.262Z,61.31
2019-05-12T16:16:36.365Z,58.84
2019-05-12T16:19:04.585Z,60.55
2019-05-12T16:21:37.460Z,60.58
2019-05-12T16:24:11.363Z,60.40
2019-05-12T16:26:51.821Z,60.58
2019-05-12T16:29:19.126Z,61.38
2019-05-12T16:31:53.687Z,61.23
2019-05-12T16:34:27.544Z,61.74
2019-05-12T16:37:00.222Z,61.08
2019-05-12T16:39:37.081Z,62.31
2019-05-12T16:42:10.444Z,62.97
2019-05-12T16:44:43.974Z,62.31
2019-05-12T16:47:18.669Z,61.23
2019-05-12T16:49:53.340Z,62.92
2019-05-12T16:52:25.644Z,63.48
2019-05-12T16:54:58.362Z,60.98
2019-05-12T16:57:33.246Z,62.51
2019-05-12T17:00:07.188Z,61.02
2019-05-12T17:02:42.178Z,61.08
2019-05-12T17:05:19.807Z,60.97
2019-05-12T17:07:50.244Z,62.09
2019-05-12T17:10:24.398Z,61.17
2019-05-12T17:12:57.240Z,64.46
2019-05-12T17:15:29.999Z,60.57
2019-05-12T17:18:04.400Z,62.67
2019-05-12T17:20:40.892Z,62.96
2019-05-12T17:23:13.688Z,65.98
2019-05-12T17:25:46.040Z,70.45
2019-05-12T17:28:18.720Z,73.17
2019-05-12T17:30:51.395Z,72.90
2019-05-12T17:33:27.442Z,75.39
2019-05-12T17:36:03.061Z,71.97
2019-05-12T17:38:34.522Z,71.00
2019-05-12T17:41:08.054Z,73.66
2019-05-12T17:43:51.997Z,70.38
2019-05-12T17:46:18.072Z,73.27
2019-05-12T17:48:49.569Z,73.39
2019-05-12T17:51:26.674Z,73.10
2019-05-12T17:53:56.721Z,72.75
2019-05-12T17:56:34.082Z,71.78
2019-05-12T17:59:04.382Z,73.17
2019-05-12T18:01:37.294Z,70.21
2019-05-12T18:04:09.995Z,73.15
2019-05-12T18:06:44.128Z,70.99
2019-05-12T18:09:20.153Z,71.51
2019-05-12T18:11:56.031Z,73.62
2019-05-12T18:14:27.763Z,71.42
2019-05-12T18:17:06.468Z,73.40
2019-05-12T18:19:35.119Z,74.35
2019-05-12T18:22:09.206Z,74.74
2019-05-12T18:24:49.398Z,73.01
2019-05-12T18:27:16.581Z,73.54
2019-05-12T18:29:49.527Z,75.16
2019-05-12T18:32:24.307Z,76.07
2019-05-12T18:34:56.773Z,74.84
2019-05-12T18:37:29.677Z,73.60
2019-05-12T18:40:04.152Z,75.87
2019-05-12T18:42:37.172Z,77.24
2019-05-12T18:45:17.351Z,79.71
2019-05-12T18:47:44.978Z,81.08
2019-05-12T18:50:20.549Z,80.13
2019-05-12T18:52:52.329Z,81.01
2019-05-12T18:55:29.244Z,82.50
2019-05-12T18:57:59.381Z,80.69
2019-05-12T19:00:33.919Z,79.04
2019-05-12T19:03:09.964Z,77.97
2019-05-12T19:05:43.330Z,76.61
2019-05-12T19:08:15.882Z,76.02
2019-05-12T19:10:51.623Z,77.27
2019-05-12T19:13:22.955Z,69.59
2019-05-12T19:16:02.595Z,72.07
2019-05-12T19:18:37.067Z,71.22
2019-05-12T19:21:04.859Z,69.46
2019-05-12T19:23:38.937Z,71.40
2019-05-12T19:26:13.604Z,71.76
2019-05-12T19:28:53.095Z,71.87
2019-05-12T19:31:20.419Z,69.77
2019-05-12T19:34:14.992Z,70.19
2019-05-12T19:36:27.739Z,69.50
2019-05-12T19:44:39.488Z,71.15
2019-05-12T19:47:13.808Z,68.11
2019-05-12T19:49:50.522Z,70.86
2019-05-12T19:52:20.845Z,70.05
2019-05-12T19:54:53.643Z,65.47
2019-05-12T19:57:26.412Z,67.70
2019-05-12T19:59:59.143Z,69.17
2019-05-12T20:02:34.059Z,69.30
2019-05-12T20:05:07.178Z,67.80
2019-05-12T20:07:40.041Z,69.44
2019-05-12T20:10:16.397Z,70.05
2019-05-12T20:12:48.727Z,69.89
2019-05-12T20:15:24.133Z,69.06
2019-05-12T20:17:56.544Z,68.97
2019-05-12T20:20:36.528Z,70.53
2019-05-12T20:23:03.695Z,67.23
2019-05-12T20:25:36.420Z,68.01
2019-05-12T20:28:11.206Z,68.34
2019-05-12T20:30:43.972Z,66.58
2019-05-12T20:33:16.764Z,66.76
2019-05-12T20:35:49.574Z,67.30
2019-05-12T20:38:25.397Z,67.49
2019-05-12T20:40:56.743Z,66.04
2019-05-12T20:43:37.168Z,65.57
2019-05-12T20:46:03.862Z,65.07
2019-05-12T20:48:36.572Z,66.01
2019-05-12T20:51:15.418Z,66.89
2019-05-12T20:53:43.718Z,67.05
2019-05-12T20:56:20.090Z,66.92
2019-05-12T20:58:51.318Z,66.57
2019-05-12T21:01:28.190Z,64.70
2019-05-12T21:03:58.569Z,68.49
2019-05-12T21:06:33.042Z,64.71
2019-05-12T21:09:06.917Z,66.59
2019-05-12T21:11:40.916Z,67.57
2019-05-12T21:14:14.670Z,64.43
2019-05-12T21:16:49.118Z,66.68
2019-05-12T21:19:24.053Z,66.13
2019-05-12T21:21:59.016Z,67.12
2019-05-12T21:24:36.051Z,65.91
2019-05-12T21:27:09.518Z,67.24
2019-05-12T21:29:39.670Z,68.13
2019-05-12T21:32:16.576Z,67.48
2019-05-12T21:34:46.798Z,68.86
2019-05-12T21:37:19.485Z,67.45
2019-05-12T21:39:52.086Z,68.30
2019-05-12T21:42:25.231Z,68.26
2019-05-12T21:44:57.908Z,67.89
2019-05-12T21:47:36.393Z,67.06
2019-05-12T21:50:05.494Z,66.39
2019-05-12T21:52:39.342Z,67.37
2019-05-12T21:55:20.945Z,67.92
2019-05-12T21:57:46.860Z,67.58
2019-05-12T22:00:30.052Z,68.97
2019-05-12T22:03:08.150Z,68.51
2019-05-12T22:05:51.085Z,67.48
2019-05-12T22:08:20.732Z,67.71
2019-05-12T22:10:47.708Z,66.61
2019-05-12T22:13:20.336Z,66.33
2019-05-12T22:15:57.416Z,68.33
2019-05-12T22:18:27.250Z,66.78
2019-05-12T22:21:03.265Z,68.63
2019-05-12T22:23:34.169Z,67.92
2019-05-12T22:26:06.882Z,69.93
2019-05-12T22:28:40.542Z,68.41
2019-05-12T22:31:13.883Z,69.50
2019-05-12T22:33:52.243Z,69.62
2019-05-12T22:36:26.819Z,69.09
2019-05-12T22:39:00.770Z,71.06
2019-05-12T22:41:30.433Z,69.38
2019-05-12T22:44:03.937Z,70.54
2019-05-12T22:46:36.550Z,71.11
2019-05-12T22:49:10.461Z,71.61
2019-05-12T22:51:46.609Z,71.64
2019-05-12T22:54:23.847Z,72.43
2019-05-12T22:56:56.991Z,72.83
2019-05-12T22:59:34.345Z,70.85
2019-05-12T23:02:04.514Z,70.72
2019-05-12T23:04:40.281Z,72.09
2019-05-12T23:07:18.734Z,71.63
2019-05-12T23:09:46.392Z,71.06
2019-05-12T23:12:20.245Z,72.08
2019-05-12T23:14:54.125Z,72.46
2019-05-12T23:17:27.319Z,74.23
2019-05-12T23:19:59.942Z,73.83
2019-05-12T23:22:35.002Z,73.46
2019-05-12T23:25:11.387Z,72.97
2019-05-12T23:27:45.144Z,73.13
2019-05-12T23:30:17.977Z,73.48
2019-05-12T23:32:52.946Z,74.62
2019-05-12T23:35:28.344Z,74.11
2019-05-12T23:38:00.141Z,72.94
2019-05-12T23:40:34.501Z,71.54
2019-05-12T23:43:07.534Z,72.77
2019-05-12T23:45:40.176Z,73.48
2019-05-12T23:48:14.301Z,71.63
2019-05-12T23:50:46.985Z,71.45
2019-05-12T23:53:19.722Z,72.66
2019-05-12T23:55:54.125Z,69.11
2019-05-12T23:58:26.034Z,68.57
